createdAt,value
2023-05-16T00:02:03.583Z,22.90
2023-05-16T00:04:33.222Z,24.23
2023-05-16T00:07:01.784Z,22.52
2023-05-16T00:09:31.544Z,22.13
2023-05-16T00:12:00.148Z,23.67
2023-05-16T00:14:28.482Z,23.87
2023-05-16T00:16:59.588Z,24.13
2023-05-16T00:19:28.661Z,24.60
2023-05-16T00:21:57.070Z,22.83
2023-05-16T00:24:25.285Z,25.10
2023-05-16T00:26:54.929Z,24.47
2023-05-16T00:29:24.446Z,24.80
2023-05-16T00:31:52.910Z,25.70
2023-05-16T00:34:22.980Z,24.53
2023-05-16T00:36:54.196Z,25.67
2023-05-16T00:39:22.456Z,24.93
2023-05-16T00:41:50.817Z,23.97
2023-05-16T00:44:20.602Z,23.60
2023-05-16T00:46:49.018Z,25.30
2023-05-16T00:49:17.388Z,24.80
2023-05-16T00:51:46.155Z,26.00
2023-05-16T00:54:15.058Z,25.60
2023-05-16T00:56:43.354Z,24.20
2023-05-16T00:59:12.271Z,24.57
2023-05-16T01:01:42.709Z,26.30
2023-05-16T01:04:11.111Z,23.90
2023-05-16T01:06:39.421Z,25.70
2023-05-16T01:09:08.352Z,24.67
2023-05-16T01:11:48.162Z,25.40
2023-05-16T01:14:26.476Z,24.80
2023-05-16T01:17:06.594Z,24.70
2023-05-16T01:19:51.605Z,24.67
2023-05-16T01:22:31.273Z,23.07
2023-05-16T01:25:07.916Z,23.03
2023-05-16T01:27:40.147Z,23.70
2023-05-16T01:30:20.260Z,25.80
2023-05-16T01:32:48.645Z,23.93
2023-05-16T01:35:18.698Z,23.47
2023-05-16T01:37:54.246Z,24.90
2023-05-16T01:40:30.577Z,21.83
2023-05-16T01:43:04.146Z,23.40
2023-05-16T01:45:36.047Z,22.93
2023-05-16T01:48:10.596Z,22.80
2023-05-16T01:50:44.750Z,23.33
2023-05-16T01:53:20.609Z,23.57
2023-05-16T01:55:50.796Z,21.20
2023-05-16T01:58:24.737Z,22.37
2023-05-16T02:00:54.298Z,22.53
2023-05-16T02:03:22.789Z,22.03
2023-05-16T02:05:51.342Z,21.20
2023-05-16T02:08:19.973Z,22.57
2023-05-16T02:10:48.336Z,22.00
2023-05-16T02:13:16.600Z,19.27
2023-05-16T02:15:46.211Z,20.33
2023-05-16T02:18:14.671Z,20.57
2023-05-16T02:20:44.545Z,19.70
2023-05-16T02:23:13.005Z,21.40
2023-05-16T02:25:41.255Z,20.23
2023-05-16T02:28:11.548Z,20.43
2023-05-16T02:30:39.932Z,19.37
2023-05-16T02:33:09.602Z,20.17
2023-05-16T02:35:37.849Z,21.00
2023-05-16T02:38:06.061Z,22.40
2023-05-16T02:40:34.165Z,21.20
2023-05-16T02:43:04.024Z,21.87
2023-05-16T02:45:32.699Z,20.67
2023-05-16T02:48:01.058Z,20.13
2023-05-16T02:50:30.765Z,20.37
2023-05-16T02:52:59.925Z,20.37
2023-05-16T02:55:28.347Z,20.90
2023-05-16T02:57:56.763Z,19.73
2023-05-16T03:00:25.577Z,20.57
2023-05-16T03:02:53.937Z,20.57
2023-05-16T03:05:22.346Z,20.67
2023-05-16T03:07:52.611Z,22.93
2023-05-16T03:10:20.992Z,21.90
2023-05-16T03:12:49.214Z,22.00
2023-05-16T03:15:17.677Z,24.30
2023-05-16T03:17:45.960Z,22.93
2023-05-16T03:20:14.331Z,22.70
2023-05-16T03:22:42.712Z,20.53
2023-05-16T03:25:13.638Z,19.17
2023-05-16T03:27:42.615Z,20.30
2023-05-16T03:30:11.506Z,20.93
2023-05-16T03:32:39.836Z,20.50
2023-05-16T03:35:08.544Z,19.57
2023-05-16T03:37:37.415Z,19.83
2023-05-16T03:40:06.594Z,19.43
2023-05-16T03:42:36.273Z,19.80
2023-05-16T03:45:06.620Z,21.15
2023-05-16T03:47:35.304Z,19.60
2023-05-16T03:50:03.896Z,19.93
2023-05-16T03:52:32.448Z,21.03
2023-05-16T03:55:02.019Z,20.10
2023-05-16T03:57:32.992Z,18.97
2023-05-16T04:00:03.770Z,20.70
2023-05-16T04:02:41.662Z,20.20
2023-05-16T04:05:11.428Z,18.90
2023-05-16T04:07:39.919Z,19.33
2023-05-16T04:10:08.915Z,19.60
2023-05-16T04:12:37.190Z,18.87
2023-05-16T04:15:07.942Z,19.73
2023-05-16T04:17:36.430Z,19.37
2023-05-16T04:20:05.456Z,18.93
2023-05-16T04:22:34.187Z,17.67
2023-05-16T04:25:02.566Z,19.20
2023-05-16T04:27:31.694Z,20.17
2023-05-16T04:30:00.521Z,19.07
2023-05-16T04:32:30.331Z,20.70
2023-05-16T04:34:58.610Z,19.37
2023-05-16T04:37:26.882Z,20.10
2023-05-16T04:39:55.623Z,19.93
2023-05-16T04:42:24.400Z,20.13
2023-05-16T04:44:52.818Z,19.77
2023-05-16T04:47:21.378Z,20.33
2023-05-16T04:49:51.219Z,19.07
2023-05-16T04:52:19.937Z,19.50
2023-05-16T04:54:48.188Z,21.13
2023-05-16T04:57:16.548Z,20.33
2023-05-16T04:59:44.809Z,20.80
2023-05-16T05:02:13.144Z,21.00
2023-05-16T05:04:41.981Z,20.97
2023-05-16T05:07:11.644Z,20.10
2023-05-16T05:09:39.812Z,21.80
2023-05-16T05:12:09.164Z,20.80
2023-05-16T05:14:37.534Z,22.40
2023-05-16T05:17:06.117Z,20.80
2023-05-16T05:19:34.428Z,20.73
2023-05-16T05:22:02.712Z,22.03
2023-05-16T05:24:32.630Z,20.40
2023-05-16T05:27:00.964Z,21.30
2023-05-16T05:29:29.215Z,22.93
2023-05-16T05:31:57.597Z,21.63
2023-05-16T05:34:25.911Z,23.60
2023-05-16T05:36:54.454Z,22.00
2023-05-16T05:39:22.753Z,24.67
2023-05-16T05:41:52.444Z,23.70
2023-05-16T05:44:21.030Z,23.03
2023-05-16T05:46:49.380Z,22.20
2023-05-16T05:49:17.894Z,22.63
2023-05-16T05:51:46.200Z,21.93
2023-05-16T05:54:14.596Z,22.00
2023-05-16T05:56:42.829Z,21.23
2023-05-16T05:59:12.373Z,21.57
2023-05-16T06:01:40.987Z,22.43
2023-05-16T06:04:09.423Z,20.80
2023-05-16T06:06:38.342Z,21.27
2023-05-16T06:09:06.567Z,20.73
2023-05-16T06:11:34.853Z,21.40
2023-05-16T06:14:03.078Z,20.27
2023-05-16T06:16:32.706Z,21.50
2023-05-16T06:19:01.356Z,22.17
2023-05-16T06:21:29.765Z,21.30
2023-05-16T06:23:57.997Z,21.80
2023-05-16T06:26:26.337Z,19.30
2023-05-16T06:28:54.512Z,18.97
2023-05-16T06:31:22.929Z,20.50
2023-05-16T06:33:52.637Z,17.83
2023-05-16T06:36:20.880Z,16.80
2023-05-16T06:38:49.056Z,18.00
2023-05-16T06:41:17.221Z,18.23
2023-05-16T06:43:45.457Z,17.90
2023-05-16T06:46:13.772Z,17.27
2023-05-16T06:48:42.069Z,17.40
2023-05-16T06:51:12.001Z,17.77
2023-05-16T06:53:40.358Z,17.50
2023-05-16T06:56:08.757Z,18.13
2023-05-16T06:58:36.999Z,17.97
2023-05-16T07:01:05.474Z,17.30
2023-05-16T07:03:33.851Z,17.40
2023-05-16T07:06:02.589Z,17.00
2023-05-16T07:08:32.297Z,17.93
2023-05-16T07:11:00.771Z,18.20
2023-05-16T07:13:29.236Z,18.00
2023-05-16T07:15:57.576Z,18.30
2023-05-16T07:18:25.941Z,17.80
2023-05-16T07:20:54.587Z,17.17
2023-05-16T07:23:22.910Z,18.30
2023-05-16T07:25:53.377Z,13.23
2023-05-16T07:28:22.185Z,15.47
2023-05-16T07:30:50.696Z,15.30
2023-05-16T07:33:19.149Z,17.03
2023-05-16T07:35:47.665Z,15.87
2023-05-16T07:38:15.916Z,16.00
2023-05-16T07:40:44.514Z,15.80
2023-05-16T07:43:14.324Z,16.00
2023-05-16T07:45:42.741Z,14.37
2023-05-16T07:48:11.049Z,14.37
2023-05-16T07:50:39.510Z,16.80
2023-05-16T07:53:07.954Z,17.00
2023-05-16T07:55:36.515Z,15.90
2023-05-16T07:58:05.286Z,14.60
2023-05-16T08:00:35.098Z,15.23
2023-05-16T08:03:03.584Z,15.90
2023-05-16T08:05:32.086Z,15.10
2023-05-16T08:08:00.469Z,15.07
2023-05-16T08:10:28.778Z,15.77
2023-05-16T08:12:57.088Z,15.17
2023-05-16T08:15:26.033Z,14.67
2023-05-16T08:17:58.589Z,17.70
2023-05-16T08:20:27.038Z,14.80
2023-05-16T08:22:55.897Z,14.60
2023-05-16T08:25:24.275Z,14.80
2023-05-16T08:27:52.646Z,14.83
2023-05-16T08:30:20.994Z,15.83
2023-05-16T08:32:49.519Z,15.23
2023-05-16T08:35:19.420Z,13.87
2023-05-16T08:37:49.933Z,15.47
2023-05-16T08:40:18.230Z,15.20
2023-05-16T08:42:47.065Z,15.03
2023-05-16T08:45:15.770Z,15.53
2023-05-16T08:47:45.338Z,15.63
2023-05-16T08:50:13.847Z,15.80
2023-05-16T08:52:44.781Z,14.70
2023-05-16T08:55:14.747Z,15.77
2023-05-16T08:57:43.412Z,15.27
2023-05-16T09:00:13.298Z,15.27
2023-05-16T09:02:42.497Z,15.27
2023-05-16T09:05:13.193Z,15.83
2023-05-16T09:07:43.139Z,14.53
2023-05-16T09:10:12.598Z,14.23
2023-05-16T09:12:41.913Z,14.40
2023-05-16T09:15:11.980Z,15.60
2023-05-16T09:17:44.749Z,14.80
2023-05-16T09:20:15.007Z,15.00
2023-05-16T09:22:53.823Z,14.30
2023-05-16T09:25:30.137Z,16.60
2023-05-16T09:28:00.264Z,15.80
2023-05-16T09:30:31.651Z,16.33
2023-05-16T09:33:00.510Z,13.60
2023-05-16T09:38:01.525Z,15.43
2023-05-16T09:40:29.855Z,15.13
2023-05-16T09:43:05.029Z,14.30
2023-05-16T09:45:34.451Z,14.77
2023-05-16T09:48:05.345Z,15.37
2023-05-16T09:50:34.752Z,13.80
2023-05-16T09:53:05.083Z,13.70
2023-05-16T09:55:33.840Z,14.70
2023-05-16T09:58:02.451Z,14.03
2023-05-16T10:00:32.456Z,14.10
2023-05-16T10:03:05.113Z,12.73
2023-05-16T10:05:35.718Z,13.57
2023-05-16T10:08:06.543Z,13.07
2023-05-16T10:10:39.713Z,13.00
2023-05-16T10:13:09.669Z,13.00
2023-05-16T10:15:39.430Z,13.80
2023-05-16T10:18:12.576Z,13.03
2023-05-16T10:20:44.013Z,11.90
2023-05-16T10:23:19.934Z,13.57
2023-05-16T10:25:49.721Z,13.20
2023-05-16T10:28:18.389Z,12.80
2023-05-16T10:30:47.806Z,12.63
2023-05-16T10:33:18.202Z,13.77
2023-05-16T10:35:47.640Z,13.50
2023-05-16T10:38:20.652Z,12.30
2023-05-16T10:40:49.882Z,13.30
2023-05-16T10:43:25.824Z,12.60
2023-05-16T10:45:58.360Z,13.87
2023-05-16T10:48:30.776Z,13.47
2023-05-16T10:50:59.098Z,14.77
2023-05-16T10:53:33.542Z,14.90
2023-05-16T10:56:12.582Z,13.97
2023-05-16T10:58:45.125Z,15.50
2023-05-16T11:01:18.598Z,13.77
2023-05-16T11:04:08.537Z,14.90
2023-05-16T11:06:45.789Z,14.83
2023-05-16T11:09:23.978Z,13.57
2023-05-16T11:12:02.874Z,13.30
2023-05-16T11:14:42.580Z,13.33
2023-05-16T11:17:13.376Z,14.80
2023-05-16T11:19:44.702Z,13.50
2023-05-16T11:22:24.733Z,13.23
2023-05-16T11:25:02.339Z,15.40
2023-05-16T11:27:32.002Z,15.17
2023-05-16T11:30:04.517Z,13.80
2023-05-16T11:32:35.144Z,13.40
2023-05-16T11:35:05.153Z,15.43
2023-05-16T11:37:33.557Z,12.80
2023-05-16T11:40:07.169Z,14.40
2023-05-16T11:42:37.261Z,14.20
2023-05-16T11:45:07.851Z,13.30
2023-05-16T11:47:38.129Z,13.53
2023-05-16T11:50:08.686Z,14.00
2023-05-16T11:52:37.493Z,13.60
2023-05-16T11:55:11.037Z,13.07
2023-05-16T11:57:42.156Z,14.73
2023-05-16T12:00:17.898Z,13.60
2023-05-16T12:02:47.748Z,12.53
2023-05-16T12:05:17.120Z,13.60
2023-05-16T12:07:46.310Z,25.93
2023-05-16T12:10:17.284Z,13.23
2023-05-16T12:12:48.393Z,14.07
2023-05-16T12:15:17.267Z,13.23
2023-05-16T12:17:47.108Z,13.87
2023-05-16T12:20:17.046Z,12.37
2023-05-16T12:22:46.718Z,12.13
2023-05-16T12:25:28.064Z,13.00
2023-05-16T12:27:58.859Z,12.53
2023-05-16T12:30:29.189Z,13.20
2023-05-16T12:32:58.555Z,13.17
2023-05-16T12:35:27.672Z,15.40
2023-05-16T12:37:56.311Z,12.37
2023-05-16T12:40:29.841Z,12.80
2023-05-16T12:42:58.895Z,12.13
2023-05-16T12:45:29.800Z,12.60
2023-05-16T12:47:58.120Z,10.33
2023-05-16T12:50:29.178Z,12.23
2023-05-16T12:53:01.724Z,13.07
2023-05-16T12:55:31.681Z,13.27
2023-05-16T12:58:02.644Z,14.80
2023-05-16T13:00:31.774Z,15.50
2023-05-16T13:03:00.287Z,14.50
2023-05-16T13:05:28.700Z,14.33
2023-05-16T13:07:57.186Z,14.10
2023-05-16T13:10:26.249Z,14.30
2023-05-16T13:12:58.544Z,13.73
2023-05-16T13:15:27.633Z,14.47
2023-05-16T13:17:56.324Z,15.37
2023-05-16T13:20:24.901Z,14.00
2023-05-16T13:22:53.230Z,14.20
2023-05-16T13:25:21.618Z,15.70
2023-05-16T13:27:50.363Z,13.87
2023-05-16T13:30:20.086Z,14.17
2023-05-16T13:32:48.673Z,14.27
2023-05-16T13:35:17.147Z,15.63
2023-05-16T13:37:45.458Z,15.47
2023-05-16T13:40:13.907Z,14.97
2023-05-16T13:42:42.104Z,14.13
2023-05-16T13:45:10.783Z,14.50
2023-05-16T13:47:40.819Z,13.03
2023-05-16T13:50:10.588Z,14.90
2023-05-16T13:52:40.172Z,14.77
2023-05-16T13:55:09.777Z,15.50
2023-05-16T13:57:39.288Z,16.90
2023-05-16T14:02:45.143Z,15.17
2023-05-16T14:05:13.502Z,13.93
2023-05-16T14:07:41.973Z,14.00
2023-05-16T14:10:10.886Z,15.33
2023-05-16T14:12:40.218Z,15.07
2023-05-16T14:15:09.545Z,17.80
2023-05-16T14:17:38.157Z,17.33
2023-05-16T14:20:11.919Z,17.27
2023-05-16T14:22:40.158Z,18.00
2023-05-16T14:25:09.173Z,18.23
2023-05-16T14:27:37.552Z,18.43
2023-05-16T14:30:08.088Z,18.10
2023-05-16T14:32:36.674Z,18.90
2023-05-16T14:35:06.461Z,17.60
2023-05-16T14:37:36.145Z,18.30
2023-05-16T14:40:06.143Z,19.47
2023-05-16T14:42:34.510Z,19.60
2023-05-16T14:45:03.242Z,19.50
2023-05-16T14:47:31.903Z,19.97
2023-05-16T14:50:01.257Z,22.40
2023-05-16T14:52:29.717Z,20.57
2023-05-16T14:54:59.397Z,18.73
2023-05-16T14:57:27.721Z,16.70
2023-05-16T14:59:56.000Z,17.10
2023-05-16T15:02:24.352Z,17.23
2023-05-16T15:04:53.365Z,21.57
2023-05-16T15:07:22.215Z,20.23
2023-05-16T15:09:50.811Z,17.00
2023-05-16T15:12:20.474Z,19.53
2023-05-16T15:14:48.865Z,15.80
2023-05-16T15:17:17.227Z,13.47
2023-05-16T15:19:45.470Z,18.27
2023-05-16T15:22:13.731Z,19.47
2023-05-16T15:24:42.033Z,21.23
2023-05-16T15:27:10.532Z,19.83
2023-05-16T15:29:41.051Z,17.17
2023-05-16T15:32:11.305Z,18.70
2023-05-16T15:34:39.664Z,18.10
2023-05-16T15:37:07.992Z,18.80
2023-05-16T15:39:36.570Z,18.60
2023-05-16T15:42:10.594Z,20.47
2023-05-16T15:44:40.823Z,20.30
2023-05-16T15:47:10.322Z,19.97
2023-05-16T15:49:38.644Z,17.30
2023-05-16T15:52:07.205Z,17.47
2023-05-16T15:54:35.824Z,18.30
2023-05-16T15:57:04.335Z,21.90
2023-05-16T15:59:32.634Z,20.23
2023-05-16T16:02:05.387Z,20.70
2023-05-16T16:04:33.804Z,23.10
2023-05-16T16:07:02.070Z,26.90
2023-05-16T16:09:30.349Z,25.40
2023-05-16T16:11:58.641Z,25.20
2023-05-16T16:14:27.041Z,26.47
2023-05-16T16:16:55.446Z,24.27
2023-05-16T16:19:26.737Z,23.83
2023-05-16T16:21:55.274Z,24.80
2023-05-16T16:24:23.444Z,25.33
2023-05-16T16:26:51.770Z,26.77
2023-05-16T16:29:20.168Z,26.90
2023-05-16T16:31:48.419Z,24.40
2023-05-16T16:34:16.756Z,23.53
2023-05-16T16:36:46.417Z,23.70
2023-05-16T16:39:14.692Z,21.27
2023-05-16T16:41:43.092Z,20.70
2023-05-16T16:44:11.994Z,23.77
2023-05-16T16:46:40.429Z,24.30
2023-05-16T16:49:08.818Z,25.60
2023-05-16T16:51:37.133Z,23.07
2023-05-16T16:54:06.788Z,24.87
2023-05-16T16:56:35.203Z,26.60
2023-05-16T16:59:03.426Z,26.90
2023-05-16T17:01:32.863Z,26.83
2023-05-16T17:04:01.761Z,26.37
2023-05-16T17:06:30.284Z,25.90
2023-05-16T17:09:02.366Z,22.73
2023-05-16T17:11:35.988Z,24.80
2023-05-16T17:14:06.281Z,25.00
2023-05-16T17:16:35.136Z,24.97
2023-05-16T17:19:04.881Z,22.93
2023-05-16T17:21:34.650Z,23.20
2023-05-16T17:24:03.644Z,23.67
2023-05-16T17:26:33.794Z,22.00
2023-05-16T17:29:04.058Z,23.07
2023-05-16T17:31:32.354Z,23.17
2023-05-16T17:34:00.659Z,25.00
2023-05-16T17:36:28.989Z,24.23
2023-05-16T17:38:58.662Z,24.03
2023-05-16T17:41:27.272Z,27.50
2023-05-16T17:43:57.014Z,31.30
2023-05-16T17:46:25.261Z,29.13
2023-05-16T17:48:54.525Z,27.27
2023-05-16T17:51:22.822Z,27.47
2023-05-16T17:53:51.545Z,26.70
2023-05-16T17:56:19.912Z,25.33
2023-05-16T17:58:48.222Z,25.20
2023-05-16T18:01:18.225Z,29.00
2023-05-16T18:03:46.664Z,27.20
2023-05-16T18:06:15.046Z,25.70
2023-05-16T18:08:43.507Z,26.63
2023-05-16T18:11:11.983Z,25.50
2023-05-16T18:13:40.445Z,26.13
2023-05-16T18:16:10.131Z,26.07
2023-05-16T18:18:40.118Z,26.43
2023-05-16T18:21:08.529Z,26.53
2023-05-16T18:23:37.268Z,26.57
2023-05-16T18:26:05.820Z,25.67
2023-05-16T18:28:34.306Z,28.00
2023-05-16T18:31:04.216Z,28.90
2023-05-16T18:33:32.647Z,28.13
2023-05-16T18:36:02.393Z,27.23
2023-05-16T18:38:33.094Z,28.17
2023-05-16T18:41:02.509Z,27.30
2023-05-16T18:43:31.078Z,28.73
2023-05-16T18:46:00.369Z,25.43
2023-05-16T18:48:28.613Z,26.40
2023-05-16T18:50:57.071Z,25.80
2023-05-16T18:53:26.827Z,24.13
2023-05-16T18:55:56.066Z,24.30
2023-05-16T18:58:24.530Z,21.73
2023-05-16T19:00:52.898Z,23.00
2023-05-16T19:03:21.911Z,23.67
2023-05-16T19:05:50.576Z,22.93
2023-05-16T19:08:19.011Z,20.70
2023-05-16T19:10:48.740Z,22.47
2023-05-16T19:13:17.045Z,21.40
2023-05-16T19:15:45.325Z,22.13
2023-05-16T19:18:13.782Z,21.27
2023-05-16T19:20:43.763Z,19.97
2023-05-16T19:23:14.210Z,23.23
2023-05-16T19:25:47.393Z,21.20
2023-05-16T19:28:17.357Z,21.10
2023-05-16T19:30:45.731Z,20.30
2023-05-16T19:33:14.989Z,22.20
2023-05-16T19:35:43.465Z,21.07
2023-05-16T19:38:11.818Z,19.50
2023-05-16T19:40:40.070Z,20.97
2023-05-16T19:43:08.478Z,19.37
2023-05-16T19:45:38.494Z,20.03
2023-05-16T19:48:07.569Z,18.53
2023-05-16T19:50:36.428Z,17.50
2023-05-16T19:53:05.240Z,17.70
2023-05-16T19:55:35.789Z,20.97
2023-05-16T19:58:04.977Z,20.10
2023-05-16T20:00:33.486Z,21.10
2023-05-16T20:03:03.387Z,21.00
2023-05-16T20:05:31.641Z,18.27
2023-05-16T20:08:00.055Z,18.40
2023-05-16T20:10:28.449Z,18.13
2023-05-16T20:12:56.705Z,17.00
2023-05-16T20:15:25.115Z,17.93
2023-05-16T20:17:53.653Z,18.27
2023-05-16T20:20:23.802Z,16.57
2023-05-16T20:22:52.073Z,17.80
2023-05-16T20:25:20.295Z,16.27
2023-05-16T20:27:48.621Z,16.53
2023-05-16T20:30:16.931Z,18.20
2023-05-16T20:32:45.259Z,16.67
2023-05-16T20:35:14.895Z,16.53
2023-05-16T20:37:44.709Z,16.10
2023-05-16T20:40:13.351Z,15.70
2023-05-16T20:42:41.565Z,15.87
2023-05-16T20:45:10.791Z,16.30
2023-05-16T20:47:38.968Z,16.10
2023-05-16T20:50:08.257Z,15.50
2023-05-16T20:52:36.594Z,16.77
2023-05-16T20:55:07.168Z,17.80
2023-05-16T20:57:35.391Z,16.73
2023-05-16T21:00:03.813Z,16.70
2023-05-16T21:02:34.259Z,17.57
2023-05-16T21:05:19.754Z,19.93
2023-05-16T21:07:50.931Z,20.33
2023-05-16T21:10:20.694Z,23.70
2023-05-16T21:12:50.273Z,20.63
2023-05-16T21:15:19.443Z,21.57
2023-05-16T21:17:49.517Z,18.23
2023-05-16T21:20:17.892Z,19.80
2023-05-16T21:22:46.229Z,21.23
2023-05-16T21:25:14.611Z,19.93
2023-05-16T21:27:44.156Z,18.80
2023-05-16T21:30:13.670Z,21.00
2023-05-16T21:32:41.961Z,23.20
2023-05-16T21:35:10.697Z,21.77
2023-05-16T21:37:39.081Z,21.87
2023-05-16T21:40:09.505Z,22.53
2023-05-16T21:42:38.197Z,22.93
2023-05-16T21:45:15.842Z,22.37
2023-05-16T21:47:44.280Z,23.50
2023-05-16T21:50:12.795Z,25.40
2023-05-16T21:52:41.466Z,24.17
2023-05-16T21:55:10.610Z,25.40
2023-05-16T21:57:39.020Z,25.83
2023-05-16T22:00:10.265Z,26.50
2023-05-16T22:02:38.998Z,27.07
2023-05-16T22:05:08.587Z,28.43
2023-05-16T22:07:37.167Z,28.40
2023-05-16T22:10:07.586Z,27.10
2023-05-16T22:12:35.991Z,27.20
2023-05-16T22:15:04.655Z,27.87
2023-05-16T22:17:35.135Z,29.03
2023-05-16T22:20:03.725Z,30.30
2023-05-16T22:22:32.044Z,29.37
2023-05-16T22:25:00.746Z,30.73
2023-05-16T22:27:29.129Z,26.17
2023-05-16T22:29:57.435Z,25.10
2023-05-16T22:32:25.733Z,26.20
2023-05-16T22:34:55.764Z,24.90
2023-05-16T22:37:24.278Z,26.40
2023-05-16T22:39:53.339Z,26.07
2023-05-16T22:42:22.105Z,22.93
2023-05-16T22:44:50.384Z,28.43
2023-05-16T22:47:18.669Z,28.53
2023-05-16T22:49:46.981Z,29.30
2023-05-16T22:52:16.640Z,30.17
2023-05-16T22:54:45.092Z,31.17
2023-05-16T22:57:13.362Z,31.80
2023-05-16T22:59:41.751Z,28.93
2023-05-16T23:02:10.000Z,30.10
2023-05-16T23:04:38.279Z,26.90
2023-05-16T23:07:06.834Z,26.73
2023-05-16T23:09:36.874Z,24.00
2023-05-16T23:12:05.546Z,22.50
2023-05-16T23:14:33.823Z,16.60
2023-05-16T23:17:02.135Z,19.13
2023-05-16T23:19:30.754Z,17.47
2023-05-16T23:21:59.051Z,16.30
2023-05-16T23:24:27.327Z,14.90
2023-05-16T23:26:56.943Z,16.50
2023-05-16T23:29:25.316Z,19.20
2023-05-16T23:31:53.565Z,25.17
2023-05-16T23:34:21.859Z,24.33
2023-05-16T23:36:50.067Z,24.43
2023-05-16T23:39:18.625Z,22.77
2023-05-16T23:41:46.901Z,21.37
2023-05-16T23:44:16.685Z,19.70
2023-05-16T23:46:44.818Z,25.07
2023-05-16T23:49:13.206Z,26.67
2023-05-16T23:51:55.982Z,28.83
2023-05-16T23:54:25.661Z,26.70
2023-05-16T23:56:54.000Z,24.83
2023-05-16T23:59:23.839Z,23.83
